sensor_id;sensor_type;location;lat;lon;timestamp;temperature;humidity
32139;DHT22;18644;48.700;9.210;2023-04-01T00:00:03;11.50;62.40
32139;DHT22;18644;48.700;9.210;2023-04-01T00:02:32;11.50;62.50
32139;DHT22;18644;48.700;9.210;2023-04-01T00:04:59;11.40;62.60
32139;DHT22;18644;48.700;9.210;2023-04-01T00:07:27;11.50;62.80
32139;DHT22;18644;48.700;9.210;2023-04-01T00:09:55;11.50;62.90
32139;DHT22;18644;48.700;9.210;2023-04-01T00:12:22;11.50;63.00
32139;DHT22;18644;48.700;9.210;2023-04-01T00:14:51;11.50;63.00
32139;DHT22;18644;48.700;9.210;2023-04-01T00:17:18;11.50;62.90
32139;DHT22;18644;48.700;9.210;2023-04-01T00:19:45;11.50;62.90
32139;DHT22;18644;48.700;9.210;2023-04-01T00:22:12;11.50;63.00
32139;DHT22;18644;48.700;9.210;2023-04-01T00:24:39;11.50;63.00
32139;DHT22;18644;48.700;9.210;2023-04-01T00:27:08;11.50;63.00
32139;DHT22;18644;48.700;9.210;2023-04-01T00:29:35;11.50;63.00
32139;DHT22;18644;48.700;9.210;2023-04-01T00:32:01;11.50;62.80
32139;DHT22;18644;48.700;9.210;2023-04-01T00:34:28;11.50;62.90
32139;DHT22;18644;48.700;9.210;2023-04-01T00:36:55;11.50;62.80
32139;DHT22;18644;48.700;9.210;2023-04-01T00:39:23;11.50;62.80
32139;DHT22;18644;48.700;9.210;2023-04-01T00:41:49;11.50;62.90
32139;DHT22;18644;48.700;9.210;2023-04-01T00:44:20;11.50;63.00
32139;DHT22;18644;48.700;9.210;2023-04-01T00:46:49;11.50;63.20
32139;DHT22;18644;48.700;9.210;2023-04-01T00:49:18;11.50;63.10
32139;DHT22;18644;48.700;9.210;2023-04-01T00:51:49;11.50;63.20
32139;DHT22;18644;48.700;9.210;2023-04-01T00:54:18;11.50;63.30
32139;DHT22;18644;48.700;9.210;2023-04-01T00:56:49;11.50;63.30
32139;DHT22;18644;48.700;9.210;2023-04-01T00:59:25;11.50;63.30
32139;DHT22;18644;48.700;9.210;2023-04-01T01:01:53;11.60;63.50
32139;DHT22;18644;48.700;9.210;2023-04-01T01:04:23;11.60;63.50
32139;DHT22;18644;48.700;9.210;2023-04-01T01:06:57;11.60;63.40
32139;DHT22;18644;48.700;9.210;2023-04-01T01:09:38;11.60;63.50
32139;DHT22;18644;48.700;9.210;2023-04-01T01:12:11;11.60;63.40
32139;DHT22;18644;48.700;9.210;2023-04-01T01:14:48;11.60;63.40
32139;DHT22;18644;48.700;9.210;2023-04-01T01:17:33;11.70;63.60
32139;DHT22;18644;48.700;9.210;2023-04-01T01:20:37;11.60;63.00
32139;DHT22;18644;48.700;9.210;2023-04-01T01:26:53;11.60;63.30
32139;DHT22;18644;48.700;9.210;2023-04-01T01:29:54;11.60;63.30
32139;DHT22;18644;48.700;9.210;2023-04-01T01:32:43;11.60;63.40
32139;DHT22;18644;48.700;9.210;2023-04-01T01:35:25;11.60;63.30
32139;DHT22;18644;48.700;9.210;2023-04-01T01:37:56;11.60;63.30
32139;DHT22;18644;48.700;9.210;2023-04-01T01:40:27;11.60;63.30
32139;DHT22;18644;48.700;9.210;2023-04-01T01:43:01;11.60;64.20
32139;DHT22;18644;48.700;9.210;2023-04-01T01:45:32;11.60;63.50
32139;DHT22;18644;48.700;9.210;2023-04-01T01:48:02;11.60;63.50
32139;DHT22;18644;48.700;9.210;2023-04-01T01:50:33;11.60;63.60
32139;DHT22;18644;48.700;9.210;2023-04-01T01:53:02;11.60;63.50
32139;DHT22;18644;48.700;9.210;2023-04-01T01:55:31;11.60;63.60
32139;DHT22;18644;48.700;9.210;2023-04-01T01:58:02;11.60;63.80
32139;DHT22;18644;48.700;9.210;2023-04-01T02:00:33;11.60;63.80
32139;DHT22;18644;48.700;9.210;2023-04-01T02:03:00;11.60;63.80
32139;DHT22;18644;48.700;9.210;2023-04-01T02:05:29;11.60;63.70
32139;DHT22;18644;48.700;9.210;2023-04-01T02:08:02;11.50;63.70
32139;DHT22;18644;48.700;9.210;2023-04-01T02:10:35;11.50;63.70
32139;DHT22;18644;48.700;9.210;2023-04-01T02:13:09;11.50;63.80
32139;DHT22;18644;48.700;9.210;2023-04-01T02:15:46;11.50;63.80
32139;DHT22;18644;48.700;9.210;2023-04-01T02:18:15;11.50;63.80
32139;DHT22;18644;48.700;9.210;2023-04-01T02:20:44;11.50;63.90
32139;DHT22;18644;48.700;9.210;2023-04-01T02:23:13;11.40;63.70
32139;DHT22;18644;48.700;9.210;2023-04-01T02:25:41;11.40;63.70
32139;DHT22;18644;48.700;9.210;2023-04-01T02:28:10;11.40;63.70
32139;DHT22;18644;48.700;9.210;2023-04-01T02:30:41;11.40;63.80
32139;DHT22;18644;48.700;9.210;2023-04-01T02:33:09;11.40;64.60
32139;DHT22;18644;48.700;9.210;2023-04-01T02:35:36;11.40;63.80
32139;DHT22;18644;48.700;9.210;2023-04-01T02:38:04;11.30;63.80
32139;DHT22;18644;48.700;9.210;2023-04-01T02:40:46;11.30;63.70
32139;DHT22;18644;48.700;9.210;2023-04-01T02:43:15;11.30;63.80
32139;DHT22;18644;48.700;9.210;2023-04-01T02:45:43;11.30;63.80
32139;DHT22;18644;48.700;9.210;2023-04-01T02:48:10;11.30;63.80
32139;DHT22;18644;48.700;9.210;2023-04-01T02:50:38;11.30;63.70
32139;DHT22;18644;48.700;9.210;2023-04-01T02:53:05;11.20;63.70
32139;DHT22;18644;48.700;9.210;2023-04-01T02:55:32;11.20;63.60
32139;DHT22;18644;48.700;9.210;2023-04-01T02:58:01;11.20;63.40
32139;DHT22;18644;48.700;9.210;2023-04-01T03:00:28;11.20;63.30
32139;DHT22;18644;48.700;9.210;2023-04-01T03:02:55;11.20;63.20
32139;DHT22;18644;48.700;9.210;2023-04-01T03:05:22;11.10;63.10
32139;DHT22;18644;48.700;9.210;2023-04-01T03:07:49;11.10;63.20
32139;DHT22;18644;48.700;9.210;2023-04-01T03:10:17;11.10;63.10
32139;DHT22;18644;48.700;9.210;2023-04-01T03:12:44;11.10;63.20
32139;DHT22;18644;48.700;9.210;2023-04-01T03:15:13;11.10;63.20
32139;DHT22;18644;48.700;9.210;2023-04-01T03:17:41;11.00;63.20
32139;DHT22;18644;48.700;9.210;2023-04-01T03:20:09;11.00;63.20
32139;DHT22;18644;48.700;9.210;2023-04-01T03:22:37;11.00;63.30
32139;DHT22;18644;48.700;9.210;2023-04-01T03:25:06;11.00;63.20
32139;DHT22;18644;48.700;9.210;2023-04-01T03:27:34;10.90;63.20
32139;DHT22;18644;48.700;9.210;2023-04-01T03:30:01;10.90;63.30
32139;DHT22;18644;48.700;9.210;2023-04-01T03:32:30;10.90;63.30
32139;DHT22;18644;48.700;9.210;2023-04-01T03:34:57;10.90;63.30
32139;DHT22;18644;48.700;9.210;2023-04-01T03:37:24;10.90;63.50
32139;DHT22;18644;48.700;9.210;2023-04-01T03:39:51;10.80;63.40
32139;DHT22;18644;48.700;9.210;2023-04-01T03:42:18;10.90;63.50
32139;DHT22;18644;48.700;9.210;2023-04-01T03:44:46;10.90;63.60
32139;DHT22;18644;48.700;9.210;2023-04-01T03:47:13;10.80;63.40
32139;DHT22;18644;48.700;9.210;2023-04-01T03:49:41;10.90;63.50
32139;DHT22;18644;48.700;9.210;2023-04-01T03:52:10;10.80;63.40
32139;DHT22;18644;48.700;9.210;2023-04-01T03:54:38;10.80;63.40
32139;DHT22;18644;48.700;9.210;2023-04-01T03:57:05;10.80;63.40
32139;DHT22;18644;48.700;9.210;2023-04-01T03:59:32;10.80;63.40
32139;DHT22;18644;48.700;9.210;2023-04-01T04:02:00;10.80;63.40
32139;DHT22;18644;48.700;9.210;2023-04-01T04:04:27;10.80;63.30
32139;DHT22;18644;48.700;9.210;2023-04-01T04:06:57;10.80;63.20
32139;DHT22;18644;48.700;9.210;2023-04-01T04:09:24;10.80;63.10
32139;DHT22;18644;48.700;9.210;2023-04-01T04:11:51;10.80;63.00
32139;DHT22;18644;48.700;9.210;2023-04-01T04:14:18;10.80;62.90
32139;DHT22;18644;48.700;9.210;2023-04-01T04:16:45;10.80;62.90
32139;DHT22;18644;48.700;9.210;2023-04-01T04:19:12;10.70;62.80
32139;DHT22;18644;48.700;9.210;2023-04-01T04:21:39;10.70;62.80
32139;DHT22;18644;48.700;9.210;2023-04-01T04:24:08;10.70;62.70
32139;DHT22;18644;48.700;9.210;2023-04-01T04:26:35;10.70;62.90
32139;DHT22;18644;48.700;9.210;2023-04-01T04:29:03;10.60;62.90
32139;DHT22;18644;48.700;9.210;2023-04-01T04:31:30;10.60;62.90
32139;DHT22;18644;48.700;9.210;2023-04-01T04:33:58;10.60;62.90
32139;DHT22;18644;48.700;9.210;2023-04-01T04:36:26;10.60;63.00
32139;DHT22;18644;48.700;9.210;2023-04-01T04:38:53;10.50;62.90
32139;DHT22;18644;48.700;9.210;2023-04-01T04:41:22;10.50;62.90
32139;DHT22;18644;48.700;9.210;2023-04-01T04:43:53;10.50;63.00
32139;DHT22;18644;48.700;9.210;2023-04-01T04:46:22;10.50;63.20
32139;DHT22;18644;48.700;9.210;2023-04-01T04:48:52;10.40;63.10
32139;DHT22;18644;48.700;9.210;2023-04-01T04:51:21;10.40;63.20
32139;DHT22;18644;48.700;9.210;2023-04-01T04:53:50;10.40;63.40
32139;DHT22;18644;48.700;9.210;2023-04-01T04:56:18;10.40;63.60
32139;DHT22;18644;48.700;9.210;2023-04-01T04:58:47;10.40;63.70
32139;DHT22;18644;48.700;9.210;2023-04-01T05:01:16;10.40;63.80
32139;DHT22;18644;48.700;9.210;2023-04-01T05:03:44;10.40;63.80
32139;DHT22;18644;48.700;9.210;2023-04-01T05:06:16;10.40;63.90
32139;DHT22;18644;48.700;9.210;2023-04-01T05:08:44;10.40;64.20
32139;DHT22;18644;48.700;9.210;2023-04-01T05:11:13;10.50;64.40
32139;DHT22;18644;48.700;9.210;2023-04-01T05:13:43;10.50;64.50
32139;DHT22;18644;48.700;9.210;2023-04-01T05:16:13;10.50;64.70
32139;DHT22;18644;48.700;9.210;2023-04-01T05:18:43;10.50;64.70
32139;DHT22;18644;48.700;9.210;2023-04-01T05:21:12;10.50;64.80
32139;DHT22;18644;48.700;9.210;2023-04-01T05:23:40;10.50;64.90
32139;DHT22;18644;48.700;9.210;2023-04-01T05:26:10;10.50;64.80
32139;DHT22;18644;48.700;9.210;2023-04-01T05:28:38;10.60;64.80
32139;DHT22;18644;48.700;9.210;2023-04-01T05:31:06;10.60;64.80
32139;DHT22;18644;48.700;9.210;2023-04-01T05:33:35;10.60;64.70
32139;DHT22;18644;48.700;9.210;2023-04-01T05:36:07;10.70;64.90
32139;DHT22;18644;48.700;9.210;2023-04-01T05:38:35;10.70;64.80
32139;DHT22;18644;48.700;9.210;2023-04-01T05:41:03;10.70;64.50
32139;DHT22;18644;48.700;9.210;2023-04-01T05:43:31;10.80;64.70
32139;DHT22;18644;48.700;9.210;2023-04-01T05:46:03;10.80;64.70
32139;DHT22;18644;48.700;9.210;2023-04-01T05:48:33;10.80;64.60
32139;DHT22;18644;48.700;9.210;2023-04-01T05:51:05;10.80;64.50
32139;DHT22;18644;48.700;9.210;2023-04-01T05:53:32;10.90;64.40
32139;DHT22;18644;48.700;9.210;2023-04-01T05:56:02;10.90;64.30
32139;DHT22;18644;48.700;9.210;2023-04-01T05:58:32;10.90;64.30
32139;DHT22;18644;48.700;9.210;2023-04-01T06:01:03;11.00;64.30
32139;DHT22;18644;48.700;9.210;2023-04-01T06:03:32;11.00;64.40
32139;DHT22;18644;48.700;9.210;2023-04-01T06:06:10;11.00;64.40
32139;DHT22;18644;48.700;9.210;2023-04-01T06:08:41;11.10;64.40
32139;DHT22;18644;48.700;9.210;2023-04-01T06:11:19;11.10;64.20
32139;DHT22;18644;48.700;9.210;2023-04-01T06:14:10;11.20;64.10
32139;DHT22;18644;48.700;9.210;2023-04-01T06:16:50;11.20;64.10
32139;DHT22;18644;48.700;9.210;2023-04-01T06:19:32;11.30;64.20
32139;DHT22;18644;48.700;9.210;2023-04-01T06:22:15;11.40;64.10
32139;DHT22;18644;48.700;9.210;2023-04-01T06:27:58;11.50;63.90
32139;DHT22;18644;48.700;9.210;2023-04-01T06:30:41;11.50;63.80
32139;DHT22;18644;48.700;9.210;2023-04-01T06:33:44;11.60;63.70
32139;DHT22;18644;48.700;9.210;2023-04-01T06:40:03;11.70;63.40
32139;DHT22;18644;48.700;9.210;2023-04-01T06:42:48;11.80;63.30
32139;DHT22;18644;48.700;9.210;2023-04-01T06:45:32;11.90;63.20
32139;DHT22;18644;48.700;9.210;2023-04-01T06:48:13;11.90;63.00
32139;DHT22;18644;48.700;9.210;2023-04-01T06:51:06;11.90;63.00
32139;DHT22;18644;48.700;9.210;2023-04-01T06:53:44;12.00;63.00
32139;DHT22;18644;48.700;9.210;2023-04-01T06:56:17;12.00;62.70
32139;DHT22;18644;48.700;9.210;2023-04-01T06:58:48;12.00;62.50
32139;DHT22;18644;48.700;9.210;2023-04-01T07:01:22;12.00;62.50
32139;DHT22;18644;48.700;9.210;2023-04-01T07:03:55;12.00;62.60
32139;DHT22;18644;48.700;9.210;2023-04-01T07:06:30;12.10;62.60
32139;DHT22;18644;48.700;9.210;2023-04-01T07:09:03;12.10;62.60
32139;DHT22;18644;48.700;9.210;2023-04-01T07:11:34;12.20;62.60
32139;DHT22;18644;48.700;9.210;2023-04-01T07:14:09;12.20;63.50
32139;DHT22;18644;48.700;9.210;2023-04-01T07:16:44;12.20;62.50
32139;DHT22;18644;48.700;9.210;2023-04-01T07:19:21;12.30;62.40
32139;DHT22;18644;48.700;9.210;2023-04-01T07:21:51;12.30;62.20
32139;DHT22;18644;48.700;9.210;2023-04-01T07:24:24;12.30;62.10
32139;DHT22;18644;48.700;9.210;2023-04-01T07:26:54;12.40;62.10
32139;DHT22;18644;48.700;9.210;2023-04-01T07:29:23;12.40;62.20
32139;DHT22;18644;48.700;9.210;2023-04-01T07:32:05;12.40;62.30
32139;DHT22;18644;48.700;9.210;2023-04-01T07:34:46;12.40;62.20
32139;DHT22;18644;48.700;9.210;2023-04-01T07:37:24;12.50;62.20
32139;DHT22;18644;48.700;9.210;2023-04-01T07:40:04;12.50;62.10
32139;DHT22;18644;48.700;9.210;2023-04-01T07:42:46;12.50;61.80
32139;DHT22;18644;48.700;9.210;2023-04-01T07:45:24;12.60;61.70
32139;DHT22;18644;48.700;9.210;2023-04-01T07:48:06;12.60;61.50
32139;DHT22;18644;48.700;9.210;2023-04-01T07:50:41;12.60;61.70
32139;DHT22;18644;48.700;9.210;2023-04-01T07:53:21;12.60;61.70
32139;DHT22;18644;48.700;9.210;2023-04-01T07:55:58;12.60;61.70
32139;DHT22;18644;48.700;9.210;2023-04-01T07:58:36;12.60;61.70
32139;DHT22;18644;48.700;9.210;2023-04-01T08:01:10;12.60;61.80
32139;DHT22;18644;48.700;9.210;2023-04-01T08:04:08;12.60;61.80
32139;DHT22;18644;48.700;9.210;2023-04-01T08:06:49;12.70;61.80
32139;DHT22;18644;48.700;9.210;2023-04-01T08:09:33;12.70;61.80
32139;DHT22;18644;48.700;9.210;2023-04-01T08:12:17;12.70;61.90
32139;DHT22;18644;48.700;9.210;2023-04-01T08:14:56;12.80;61.90
32139;DHT22;18644;48.700;9.210;2023-04-01T08:17:31;12.80;61.90
32139;DHT22;18644;48.700;9.210;2023-04-01T08:20:18;12.90;61.90
32139;DHT22;18644;48.700;9.210;2023-04-01T08:22:58;12.80;61.90
32139;DHT22;18644;48.700;9.210;2023-04-01T08:25:28;12.90;61.90
32139;DHT22;18644;48.700;9.210;2023-04-01T08:28:03;12.90;62.70
32139;DHT22;18644;48.700;9.210;2023-04-01T08:30:41;12.90;62.00
32139;DHT22;18644;48.700;9.210;2023-04-01T08:33:13;13.00;62.00
32139;DHT22;18644;48.700;9.210;2023-04-01T08:35:46;13.00;61.90
32139;DHT22;18644;48.700;9.210;2023-04-01T08:38:19;13.00;61.80
32139;DHT22;18644;48.700;9.210;2023-04-01T08:40:59;13.00;61.90
32139;DHT22;18644;48.700;9.210;2023-04-01T08:43:42;13.00;61.70
32139;DHT22;18644;48.700;9.210;2023-04-01T08:46:35;13.00;61.80
32139;DHT22;18644;48.700;9.210;2023-04-01T08:49:35;13.00;61.50
32139;DHT22;18644;48.700;9.210;2023-04-01T08:52:18;13.00;61.40
32139;DHT22;18644;48.700;9.210;2023-04-01T08:55:17;13.00;61.50
32139;DHT22;18644;48.700;9.210;2023-04-01T09:00:53;12.90;61.40
32139;DHT22;18644;48.700;9.210;2023-04-01T09:03:42;12.90;61.30
32139;DHT22;18644;48.700;9.210;2023-04-01T09:06:31;12.80;61.60
32139;DHT22;18644;48.700;9.210;2023-04-01T09:12:30;12.80;62.00
32139;DHT22;18644;48.700;9.210;2023-04-01T09:15:36;12.70;62.00
32139;DHT22;18644;48.700;9.210;2023-04-01T09:18:24;12.70;62.20
32139;DHT22;18644;48.700;9.210;2023-04-01T09:21:31;12.70;62.30
32139;DHT22;18644;48.700;9.210;2023-04-01T09:24:28;12.80;62.80
32139;DHT22;18644;48.700;9.210;2023-04-01T09:27:15;12.80;63.10
32139;DHT22;18644;48.700;9.210;2023-04-01T09:37:13;13.10;63.30
32139;DHT22;18644;48.700;9.210;2023-04-01T09:40:02;13.20;63.40
32139;DHT22;18644;48.700;9.210;2023-04-01T09:42:45;13.30;63.50
32139;DHT22;18644;48.700;9.210;2023-04-01T09:45:41;13.40;62.80
32139;DHT22;18644;48.700;9.210;2023-04-01T09:48:33;13.40;62.30
32139;DHT22;18644;48.700;9.210;2023-04-01T09:51:21;13.50;61.90
32139;DHT22;18644;48.700;9.210;2023-04-01T09:54:01;13.40;61.40
32139;DHT22;18644;48.700;9.210;2023-04-01T10:00:15;13.40;61.40
32139;DHT22;18644;48.700;9.210;2023-04-01T10:03:13;13.40;61.70
32139;DHT22;18644;48.700;9.210;2023-04-01T10:09:44;13.40;61.40
32139;DHT22;18644;48.700;9.210;2023-04-01T10:12:56;13.30;60.90
32139;DHT22;18644;48.700;9.210;2023-04-01T10:16:20;13.30;61.00
32139;DHT22;18644;48.700;9.210;2023-04-01T10:19:25;13.30;61.20
32139;DHT22;18644;48.700;9.210;2023-04-01T10:22:17;13.30;61.30
32139;DHT22;18644;48.700;9.210;2023-04-01T10:25:27;13.30;61.60
32139;DHT22;18644;48.700;9.210;2023-04-01T10:41:09;13.40;61.80
32139;DHT22;18644;48.700;9.210;2023-04-01T10:44:30;13.50;62.10
32139;DHT22;18644;48.700;9.210;2023-04-01T10:48:01;13.60;62.20
32139;DHT22;18644;48.700;9.210;2023-04-01T10:51:16;13.70;62.90
32139;DHT22;18644;48.700;9.210;2023-04-01T10:57:02;14.10;62.70
32139;DHT22;18644;48.700;9.210;2023-04-01T11:09:57;14.60;60.60
32139;DHT22;18644;48.700;9.210;2023-04-01T11:13:06;14.70;60.00
32139;DHT22;18644;48.700;9.210;2023-04-01T11:16:01;14.80;59.80
32139;DHT22;18644;48.700;9.210;2023-04-01T11:19:09;14.80;59.70
32139;DHT22;18644;48.700;9.210;2023-04-01T11:22:07;14.80;59.20
32139;DHT22;18644;48.700;9.210;2023-04-01T11:25:11;14.80;59.40
32139;DHT22;18644;48.700;9.210;2023-04-01T11:31:03;14.90;59.20
32139;DHT22;18644;48.700;9.210;2023-04-01T11:33:44;14.90;59.30
32139;DHT22;18644;48.700;9.210;2023-04-01T11:36:33;14.90;59.50
32139;DHT22;18644;48.700;9.210;2023-04-01T11:39:21;15.00;59.60
32139;DHT22;18644;48.700;9.210;2023-04-01T11:42:01;15.10;59.40
32139;DHT22;18644;48.700;9.210;2023-04-01T11:44:43;15.20;59.20
32139;DHT22;18644;48.700;9.210;2023-04-01T11:47:34;15.30;58.60
32139;DHT22;18644;48.700;9.210;2023-04-01T11:50:18;15.30;58.30
32139;DHT22;18644;48.700;9.210;2023-04-01T11:53:10;15.30;58.30
32139;DHT22;18644;48.700;9.210;2023-04-01T11:55:53;15.40;58.10
32139;DHT22;18644;48.700;9.210;2023-04-01T11:58:46;15.40;57.90
32139;DHT22;18644;48.700;9.210;2023-04-01T12:01:40;15.40;57.80
32139;DHT22;18644;48.700;9.210;2023-04-01T12:07:55;15.30;57.00
32139;DHT22;18644;48.700;9.210;2023-04-01T12:10:37;15.30;56.80
32139;DHT22;18644;48.700;9.210;2023-04-01T12:13:29;15.20;56.80
32139;DHT22;18644;48.700;9.210;2023-04-01T12:16:35;15.10;56.80
32139;DHT22;18644;48.700;9.210;2023-04-01T12:19:29;15.10;56.80
32139;DHT22;18644;48.700;9.210;2023-04-01T12:22:23;15.10;56.80
32139;DHT22;18644;48.700;9.210;2023-04-01T12:25:07;15.00;57.10
32139;DHT22;18644;48.700;9.210;2023-04-01T12:27:53;15.00;57.10
32139;DHT22;18644;48.700;9.210;2023-04-01T12:30:49;15.00;57.10
32139;DHT22;18644;48.700;9.210;2023-04-01T12:33:52;15.00;57.50
32139;DHT22;18644;48.700;9.210;2023-04-01T12:37:01;15.10;57.10
32139;DHT22;18644;48.700;9.210;2023-04-01T12:39:49;15.10;57.60
32139;DHT22;18644;48.700;9.210;2023-04-01T12:42:44;15.20;57.80
32139;DHT22;18644;48.700;9.210;2023-04-01T12:45:31;15.30;57.70
32139;DHT22;18644;48.700;9.210;2023-04-01T12:48:31;15.30;57.00
32139;DHT22;18644;48.700;9.210;2023-04-01T12:51:30;15.30;56.80
32139;DHT22;18644;48.700;9.210;2023-04-01T12:58:37;15.30;57.60
32139;DHT22;18644;48.700;9.210;2023-04-01T13:01:39;15.40;57.60
32139;DHT22;18644;48.700;9.210;2023-04-01T13:04:47;15.50;57.50
32139;DHT22;18644;48.700;9.210;2023-04-01T13:07:53;15.50;57.00
32139;DHT22;18644;48.700;9.210;2023-04-01T13:10:55;15.60;56.60
32139;DHT22;18644;48.700;9.210;2023-04-01T13:13:58;15.60;56.20
32139;DHT22;18644;48.700;9.210;2023-04-01T13:17:06;15.70;56.60
32139;DHT22;18644;48.700;9.210;2023-04-01T13:20:03;15.70;56.30
32139;DHT22;18644;48.700;9.210;2023-04-01T13:22:49;15.70;55.70
32139;DHT22;18644;48.700;9.210;2023-04-01T13:25:39;15.70;55.20
32139;DHT22;18644;48.700;9.210;2023-04-01T13:28:20;15.70;55.50
32139;DHT22;18644;48.700;9.210;2023-04-01T13:31:07;15.70;55.60
32139;DHT22;18644;48.700;9.210;2023-04-01T13:33:50;15.70;55.30
32139;DHT22;18644;48.700;9.210;2023-04-01T13:39:40;15.70;54.80
32139;DHT22;18644;48.700;9.210;2023-04-01T13:42:23;15.70;54.80
32139;DHT22;18644;48.700;9.210;2023-04-01T13:45:01;15.70;54.60
32139;DHT22;18644;48.700;9.210;2023-04-01T13:51:15;15.50;54.70
32139;DHT22;18644;48.700;9.210;2023-04-01T13:54:17;15.50;55.00
32139;DHT22;18644;48.700;9.210;2023-04-01T13:57:00;15.50;55.10
32139;DHT22;18644;48.700;9.210;2023-04-01T13:59:43;15.50;55.10
32139;DHT22;18644;48.700;9.210;2023-04-01T14:05:43;15.50;55.80
32139;DHT22;18644;48.700;9.210;2023-04-01T14:08:33;15.60;55.50
32139;DHT22;18644;48.700;9.210;2023-04-01T14:11:25;15.60;55.20
32139;DHT22;18644;48.700;9.210;2023-04-01T14:14:04;15.60;55.50
32139;DHT22;18644;48.700;9.210;2023-04-01T14:17:04;15.70;56.00
32139;DHT22;18644;48.700;9.210;2023-04-01T14:19:50;15.70;55.20
32139;DHT22;18644;48.700;9.210;2023-04-01T14:22:33;15.70;55.30
32139;DHT22;18644;48.700;9.210;2023-04-01T14:25:30;15.70;55.10
32139;DHT22;18644;48.700;9.210;2023-04-01T14:28:15;15.70;54.80
32139;DHT22;18644;48.700;9.210;2023-04-01T14:31:13;15.70;55.00
32139;DHT22;18644;48.700;9.210;2023-04-01T14:34:00;15.60;54.90
32139;DHT22;18644;48.700;9.210;2023-04-01T14:36:44;15.60;54.70
32139;DHT22;18644;48.700;9.210;2023-04-01T14:39:33;15.60;54.80
32139;DHT22;18644;48.700;9.210;2023-04-01T14:42:24;15.50;55.10
32139;DHT22;18644;48.700;9.210;2023-04-01T14:45:29;15.50;55.10
32139;DHT22;18644;48.700;9.210;2023-04-01T14:48:17;15.50;55.30
32139;DHT22;18644;48.700;9.210;2023-04-01T14:50:53;15.40;55.30
32139;DHT22;18644;48.700;9.210;2023-04-01T14:53:28;15.50;55.20
32139;DHT22;18644;48.700;9.210;2023-04-01T14:55:57;15.50;54.80
32139;DHT22;18644;48.700;9.210;2023-04-01T14:58:43;15.40;54.60
32139;DHT22;18644;48.700;9.210;2023-04-01T15:01:32;15.40;54.70
32139;DHT22;18644;48.700;9.210;2023-04-01T15:04:21;15.40;54.90
32139;DHT22;18644;48.700;9.210;2023-04-01T15:07:11;15.30;54.80
32139;DHT22;18644;48.700;9.210;2023-04-01T15:09:55;15.30;54.40
32139;DHT22;18644;48.700;9.210;2023-04-01T15:12:34;15.30;54.20
32139;DHT22;18644;48.700;9.210;2023-04-01T15:15:20;15.20;54.20
32139;DHT22;18644;48.700;9.210;2023-04-01T15:18:07;15.10;54.30
32139;DHT22;18644;48.700;9.210;2023-04-01T15:20:49;15.10;54.30
32139;DHT22;18644;48.700;9.210;2023-04-01T15:23:37;15.00;54.40
32139;DHT22;18644;48.700;9.210;2023-04-01T15:26:32;15.00;54.50
32139;DHT22;18644;48.700;9.210;2023-04-01T15:29:15;14.90;54.50
32139;DHT22;18644;48.700;9.210;2023-04-01T15:32:04;14.90;54.70
32139;DHT22;18644;48.700;9.210;2023-04-01T15:34:50;14.90;55.00
32139;DHT22;18644;48.700;9.210;2023-04-01T15:37:30;14.90;55.10
32139;DHT22;18644;48.700;9.210;2023-04-01T15:40:14;14.90;55.20
32139;DHT22;18644;48.700;9.210;2023-04-01T15:42:55;14.80;55.10
32139;DHT22;18644;48.700;9.210;2023-04-01T15:45:56;14.80;55.10
32139;DHT22;18644;48.700;9.210;2023-04-01T15:49:00;14.90;55.00
32139;DHT22;18644;48.700;9.210;2023-04-01T15:52:06;14.80;55.00
32139;DHT22;18644;48.700;9.210;2023-04-01T15:55:08;14.80;54.80
32139;DHT22;18644;48.700;9.210;2023-04-01T15:58:01;14.70;54.90
32139;DHT22;18644;48.700;9.210;2023-04-01T16:00:51;14.70;55.00
32139;DHT22;18644;48.700;9.210;2023-04-01T16:03:33;14.70;55.20
32139;DHT22;18644;48.700;9.210;2023-04-01T16:06:45;14.70;55.50
32139;DHT22;18644;48.700;9.210;2023-04-01T16:09:34;14.60;55.50
32139;DHT22;18644;48.700;9.210;2023-04-01T16:12:34;14.60;55.70
32139;DHT22;18644;48.700;9.210;2023-04-01T16:15:24;14.60;55.70
32139;DHT22;18644;48.700;9.210;2023-04-01T16:18:15;14.60;55.70
32139;DHT22;18644;48.700;9.210;2023-04-01T16:20:53;14.60;55.60
32139;DHT22;18644;48.700;9.210;2023-04-01T16:23:29;14.50;55.60
32139;DHT22;18644;48.700;9.210;2023-04-01T16:26:07;14.40;55.80
32139;DHT22;18644;48.700;9.210;2023-04-01T16:28:44;14.40;56.00
32139;DHT22;18644;48.700;9.210;2023-04-01T16:31:29;14.40;56.10
32139;DHT22;18644;48.700;9.210;2023-04-01T16:34:02;14.30;56.10
32139;DHT22;18644;48.700;9.210;2023-04-01T16:36:37;14.30;56.10
32139;DHT22;18644;48.700;9.210;2023-04-01T16:39:30;14.30;56.20
32139;DHT22;18644;48.700;9.210;2023-04-01T16:42:34;14.20;56.20
32139;DHT22;18644;48.700;9.210;2023-04-01T16:45:19;14.20;56.10
32139;DHT22;18644;48.700;9.210;2023-04-01T16:47:55;14.20;56.10
32139;DHT22;18644;48.700;9.210;2023-04-01T16:50:25;14.20;56.20
32139;DHT22;18644;48.700;9.210;2023-04-01T16:53:00;14.10;56.30
32139;DHT22;18644;48.700;9.210;2023-04-01T16:55:46;14.10;56.30
32139;DHT22;18644;48.700;9.210;2023-04-01T16:58:24;14.10;56.30
32139;DHT22;18644;48.700;9.210;2023-04-01T17:01:00;14.10;56.40
32139;DHT22;18644;48.700;9.210;2023-04-01T17:03:33;14.10;56.30
32139;DHT22;18644;48.700;9.210;2023-04-01T17:06:12;14.10;56.30
32139;DHT22;18644;48.700;9.210;2023-04-01T17:09:03;14.10;56.30
32139;DHT22;18644;48.700;9.210;2023-04-01T17:11:51;14.10;56.30
32139;DHT22;18644;48.700;9.210;2023-04-01T17:14:28;14.10;56.30
32139;DHT22;18644;48.700;9.210;2023-04-01T17:17:14;14.10;56.30
32139;DHT22;18644;48.700;9.210;2023-04-01T17:20:07;14.00;56.20
32139;DHT22;18644;48.700;9.210;2023-04-01T17:22:44;14.00;56.30
32139;DHT22;18644;48.700;9.210;2023-04-01T17:25:32;14.00;56.40
32139;DHT22;18644;48.700;9.210;2023-04-01T17:28:13;14.00;56.30
32139;DHT22;18644;48.700;9.210;2023-04-01T17:30:53;14.00;56.30
32139;DHT22;18644;48.700;9.210;2023-04-01T17:33:58;13.90;56.30
32139;DHT22;18644;48.700;9.210;2023-04-01T17:36:39;13.90;56.30
32139;DHT22;18644;48.700;9.210;2023-04-01T17:39:25;13.90;56.30
32139;DHT22;18644;48.700;9.210;2023-04-01T17:42:06;13.90;56.40
32139;DHT22;18644;48.700;9.210;2023-04-01T17:44:45;13.80;56.40
32139;DHT22;18644;48.700;9.210;2023-04-01T17:47:27;13.80;56.40
32139;DHT22;18644;48.700;9.210;2023-04-01T17:50:07;13.80;56.30
32139;DHT22;18644;48.700;9.210;2023-04-01T17:52:44;13.70;56.20
32139;DHT22;18644;48.700;9.210;2023-04-01T17:55:28;13.70;56.30
32139;DHT22;18644;48.700;9.210;2023-04-01T17:58:20;13.70;56.50
32139;DHT22;18644;48.700;9.210;2023-04-01T18:01:06;13.60;56.50
32139;DHT22;18644;48.700;9.210;2023-04-01T18:04:03;13.60;56.70
32139;DHT22;18644;48.700;9.210;2023-04-01T18:06:37;13.50;56.70
32139;DHT22;18644;48.700;9.210;2023-04-01T18:09:23;13.50;56.70